CSP2 weather

Stony Plain (Westview Health Centre) Heliport
Stony Plain, Alberta, Canada

Public forecast

Using degrees Celsius for public forecast. Weather courtesy of forecast.io.

Closest aviation weather report (METAR) to Stony Plain (Westview Health Centre) Heliport

Closest report is Edmonton / Villeneuve Airport, 9.0 nm (16.6 km) NNE. Retrieved 2019/11/16 20:00 UTC (15 minutes ago):

CZVL 162000Z AUTO 22007KT 9SM CLR 05/M01 A2996 RMK SLP170

Closest aviation forecast (TAF) to Stony Plain (Westview Health Centre) Heliport

Closest forecast is Edmonton / Villeneuve Airport, 9.0 nm (16.6 km) NNE. Retrieved 2019/11/16 18:00 UTC (2 hours ago):

TAF CZVL 161738Z 1618/1706 18008KT P6SM FEW250 FM170200 17008KT P6SM SCT080 BKN200 RMK FCST BASED ON AUTO OBS NXT FCST BY 170000Z